Time;durP1;ratioP1;P1;durP2;ratioP2;P2;SDS_P1;SDS_P2;PMS_P1;PMS_P2;Temp;Humidity;BMP_temperature;BMP_pressure;BME280_temperature;BME280_humidity;BME280_pressure;Samples;Min_cycle;Max_cycle;Signal;HPM_P1;HPM_P2
2021/03/24 00:00:16;;;;;;;34.43;23.13;;;;;;;0.91;92.47;96799.47;1277433;23;20012;-73
2021/03/24 00:00:47;;;;;;;33.95;22.10;;;;;;;0.92;93.22;96791.41;1277610;23;20067;-72
2021/03/24 00:01:20;;;;;;;33.83;23.02;;;;;;;0.93;92.67;96792.22;1277733;23;20028;-72
2021/03/24 00:01:50;;;;;;;35.47;22.38;;;;;;;0.91;92.70;96796.81;1277615;23;20001;-73
2021/03/24 00:02:21;;;;;;;36.53;22.10;;;;;;;0.89;93.16;96789.13;1278045;23;20355;-73
2021/03/24 00:02:55;;;;;;;34.00;22.00;;;;;;;0.87;93.14;96793.78;1277838;23;20733;-74
2021/03/24 00:03:26;;;;;;;29.70;20.40;;;;;;;0.88;93.56;96791.97;1277416;23;20004;-73
2021/03/24 00:03:56;;;;;;;38.20;22.00;;;;;;;0.85;92.97;96789.69;1278022;23;20359;-73
2021/03/24 00:04:27;;;;;;;38.50;24.40;;;;;;;0.86;93.35;96789.50;1277650;23;20454;-73
2021/03/24 00:04:57;;;;;;;33.20;21.90;;;;;;;0.86;93.13;96791.31;1278164;23;20005;-72
2021/03/24 00:05:31;;;;;;;31.47;21.10;;;;;;;0.87;92.81;96800.84;1278669;23;20419;-73
2021/03/24 00:06:02;;;;;;;34.90;22.05;;;;;;;0.82;93.47;96788.28;1278723;23;20075;-74
2021/03/24 00:06:32;;;;;;;35.15;22.60;;;;;;;0.79;93.01;96799.16;1278389;23;20077;-73
2021/03/24 00:07:03;;;;;;;33.57;21.97;;;;;;;0.75;93.01;96798.72;1278463;23;20347;-72
2021/03/24 00:07:34;;;;;;;35.35;22.92;;;;;;;0.73;93.34;96795.47;1280219;23;20035;-72
2021/03/24 00:08:05;;;;;;;37.07;22.67;;;;;;;0.78;93.99;96795.72;1280222;23;20032;-72
2021/03/24 00:08:35;;;;;;;36.28;23.05;;;;;;;0.81;93.95;96791.06;1279504;23;20007;-72
2021/03/24 00:09:08;;;;;;;35.60;22.47;;;;;;;0.80;93.82;96792.88;1279487;23;20028;-72
2021/03/24 00:09:38;;;;;;;38.80;22.52;;;;;;;0.77;93.53;96795.91;1278076;23;19997;-72
2021/03/24 00:10:09;;;;;;;39.27;23.30;;;;;;;0.78;93.45;96794.91;1272023;23;20013;-73
2021/03/24 00:10:40;;;;;;;37.78;23.02;;;;;;;0.80;93.76;96795.53;1271694;23;20513;-72
2021/03/24 00:11:11;;;;;;;36.43;21.87;;;;;;;0.78;93.14;96797.53;1272114;23;20041;-72
2021/03/24 00:11:41;;;;;;;32.77;21.83;;;;;;;0.76;93.94;96796.91;1272010;23;20268;-72
2021/03/24 00:12:12;;;;;;;38.93;22.90;;;;;;;0.80;93.30;96790.25;1271781;23;20372;-72
2021/03/24 00:12:42;;;;;;;38.40;23.37;;;;;;;0.78;93.76;96789.66;1272016;23;20363;-72
2021/03/24 00:13:13;;;;;;;35.27;22.30;;;;;;;0.77;93.53;96793.28;1272043;23;20138;-72
2021/03/24 00:13:43;;;;;;;34.87;22.87;;;;;;;0.75;93.33;96800.53;1279476;23;20521;-71
2021/03/24 00:14:14;;;;;;;34.27;23.27;;;;;;;0.75;93.70;96792.63;1279370;23;20052;-73
2021/03/24 00:14:44;;;;;;;35.97;23.27;;;;;;;0.74;93.13;96791.84;1279425;23;20458;-72
2021/03/24 00:15:18;;;;;;;34.93;22.00;;;;;;;0.73;93.23;96792.03;1279869;23;20005;-74
2021/03/24 00:15:49;;;;;;;37.53;23.38;;;;;;;0.75;93.79;96790.00;1273047;23;20005;-73
2021/03/24 00:16:20;;;;;;;34.85;22.48;;;;;;;0.74;93.87;96791.00;1277892;23;20001;-73
2021/03/24 00:16:50;;;;;;;31.97;20.37;;;;;;;0.77;93.23;96795.91;1278035;23;20001;-73
2021/03/24 00:17:20;;;;;;;33.67;22.40;;;;;;;0.72;93.52;96791.22;1272117;23;20005;-73
2021/03/24 00:17:51;;;;;;;34.03;21.87;;;;;;;0.73;93.53;96794.66;1277966;23;20044;-73
2021/03/24 00:18:21;;;;;;;35.60;22.20;;;;;;;0.75;93.37;96793.44;1271847;23;20035;-73
2021/03/24 00:18:52;;;;;;;33.30;21.83;;;;;;;0.74;93.73;96791.84;1272034;23;20005;-73
2021/03/24 00:19:22;;;;;;;30.67;20.40;;;;;;;0.74;93.10;96783.94;1278023;23;20311;-73
2021/03/24 00:19:53;;;;;;;33.83;21.77;;;;;;;0.72;92.91;96791.22;1271735;23;20005;-73
2021/03/24 00:20:26;;;;;;;32.33;21.57;;;;;;;0.72;93.43;96793.84;1278013;23;20020;-73
2021/03/24 00:20:56;;;;;;;37.15;21.80;;;;;;;0.72;93.56;96788.59;1278076;23;20120;-73
2021/03/24 00:21:27;;;;;;;34.10;22.07;;;;;;;0.74;93.27;96781.31;1272354;23;20046;-73
2021/03/24 00:21:57;;;;;;;37.23;22.57;;;;;;;0.72;92.95;96793.03;1277757;23;20005;-73
2021/03/24 00:22:27;;;;;;;33.00;22.03;;;;;;;0.71;93.42;96788.75;1271666;23;20008;-72
2021/03/24 00:22:59;;;;;;;35.73;22.70;;;;;;;0.72;93.84;96791.22;1271985;23;20339;-74
2021/03/24 00:23:30;;;;;;;35.33;21.30;;;;;;;0.73;93.28;96792.03;1277651;23;20020;-73
2021/03/24 00:24:00;;;;;;;36.93;21.47;;;;;;;0.74;93.86;96793.66;1277785;23;20004;-73
2021/03/24 00:24:31;;;;;;;35.10;21.63;;;;;;;0.74;93.60;96789.19;1277959;23;20000;-74
2021/03/24 00:25:01;;;;;;;34.87;22.77;;;;;;;0.75;93.08;96790.81;1278023;23;20004;-73
2021/03/24 00:25:32;;;;;;;36.60;21.73;;;;;;;0.73;93.34;96789.41;1278292;23;20076;-73
2021/03/24 00:26:02;;;;;;;36.10;22.57;;;;;;;0.73;93.06;96786.75;1278269;23;20422;-73
2021/03/24 00:26:33;;;;;;;38.00;22.13;;;;;;;0.74;93.65;96789.19;1278265;23;19993;-73
2021/03/24 00:27:04;;;;;;;33.27;20.83;;;;;;;0.70;93.83;96782.69;1278304;23;19997;-73
2021/03/24 00:27:35;;;;;;;35.33;22.02;;;;;;;0.69;93.99;96782.88;1278440;23;20060;-73
2021/03/24 00:28:05;;;;;;;36.13;21.20;;;;;;;0.69;93.49;96782.88;1278286;23;20089;-72
2021/03/24 00:28:36;;;;;;;35.63;23.23;;;;;;;0.72;94.15;96785.13;1278346;23;20433;-72
2021/03/24 00:29:06;;;;;;;39.60;24.40;;;;;;;0.72;94.04;96785.13;1278299;23;20076;-73
2021/03/24 00:29:37;;;;;;;34.50;22.13;;;;;;;0.71;93.41;96773.78;1278251;23;20366;-73
2021/03/24 00:30:08;;;;;;;37.20;22.93;;;;;;;0.71;93.45;96775.59;1278391;23;20414;-73
2021/03/24 00:30:41;;;;;;;35.35;21.60;;;;;;;0.69;94.04;96782.88;1278185;23;20080;-73
2021/03/24 00:31:11;;;;;;;38.83;22.40;;;;;;;0.71;93.80;96780.84;1278440;23;20025;-73
2021/03/24 00:31:41;;;;;;;34.73;21.43;;;;;;;0.71;93.39;96780.84;1278474;23;20008;-73
2021/03/24 00:32:12;;;;;;;32.50;20.77;;;;;;;0.71;93.94;96786.94;1278296;23;20005;-73
2021/03/24 00:32:42;;;;;;;45.10;21.37;;;;;;;0.73;93.14;96779.69;1278370;23;20414;-73
2021/03/24 00:33:15;;;;;;;33.77;21.63;;;;;;;0.76;93.28;96789.81;1278337;23;20008;-73
2021/03/24 00:33:45;;;;;;;43.28;22.77;;;;;;;0.74;93.01;96791.84;1278341;23;20025;-72
2021/03/24 00:34:16;;;;;;;34.20;21.23;;;;;;;0.73;92.94;96784.94;1278126;23;20414;-72
2021/03/24 00:34:46;;;;;;;38.40;22.13;;;;;;;0.74;93.32;96781.31;1278407;23;20410;-72
2021/03/24 00:35:17;;;;;;;35.63;22.23;;;;;;;0.75;93.68;96782.13;1278436;23;20008;-72
2021/03/24 00:35:47;;;;;;;33.50;22.17;;;;;;;0.75;93.54;96779.47;1278289;23;20036;-71
2021/03/24 00:36:18;;;;;;;30.60;20.27;;;;;;;0.73;93.66;96786.75;1278359;23;20079;-72
2021/03/24 00:36:48;;;;;;;37.67;23.00;;;;;;;0.67;93.63;96783.06;1278401;23;20000;-73
2021/03/24 00:37:19;;;;;;;37.37;21.43;;;;;;;0.68;93.83;96773.34;1278293;23;20005;-72
2021/03/24 00:37:49;;;;;;;36.30;21.93;;;;;;;0.69;94.00;96775.78;1278325;23;20001;-72
2021/03/24 00:38:21;;;;;;;35.33;22.10;;;;;;;0.64;94.27;96772.09;1277962;23;20001;-72
2021/03/24 00:38:52;;;;;;;33.08;20.40;;;;;;;0.62;94.35;96777.56;1278010;23;20004;-72
2021/03/24 00:39:22;;;;;;;32.15;20.48;;;;;;;0.64;94.31;96767.66;1278025;23;20598;-73
2021/03/24 00:39:52;;;;;;;33.13;21.60;;;;;;;0.66;94.30;96772.72;1278082;23;20001;-73
2021/03/24 00:40:27;;;;;;;35.60;20.80;;;;;;;0.67;93.43;96767.28;1277884;23;20020;-73
2021/03/24 00:40:57;;;;;;;33.45;21.13;;;;;;;0.70;93.72;96779.22;1277941;23;20522;-72
2021/03/24 00:41:28;;;;;;;33.90;21.75;;;;;;;0.71;93.94;96775.59;1277939;23;20008;-73
2021/03/24 00:41:58;;;;;;;34.17;21.43;;;;;;;0.70;93.83;96773.97;1277949;23;20001;-73
2021/03/24 00:42:29;;;;;;;36.07;22.83;;;;;;;0.65;93.99;96766.63;1278353;23;20004;-73
2021/03/24 00:42:59;;;;;;;33.37;21.43;;;;;;;0.69;94.04;96772.34;1277857;23;19993;-72
2021/03/24 00:43:30;;;;;;;37.57;22.70;;;;;;;0.68;93.72;96774.16;1277641;23;20024;-73
2021/03/24 00:44:00;;;;;;;33.97;21.37;;;;;;;0.68;93.59;96768.91;1278210;23;19997;-73
2021/03/24 00:44:30;;;;;;;35.70;21.30;;;;;;;0.68;93.90;96774.16;1278271;23;19997;-73
2021/03/24 00:45:03;;;;;;;33.70;22.10;;;;;;;0.67;93.74;96764.66;1278669;23;20001;-72
2021/03/24 00:45:36;;;;;;;37.50;23.15;;;;;;;0.70;93.10;96779.22;1278737;23;19997;-73
2021/03/24 00:46:06;;;;;;;35.40;22.98;;;;;;;0.65;93.83;96769.28;1278548;23;20020;-73
2021/03/24 00:46:37;;;;;;;37.00;22.10;;;;;;;0.63;93.22;96779.19;1278736;23;19997;-72
2021/03/24 00:47:07;;;;;;;34.17;22.17;;;;;;;0.64;93.90;96777.34;1278676;23;20009;-73
2021/03/24 00:47:38;;;;;;;37.17;22.70;;;;;;;0.61;93.81;96769.84;1278756;23;20005;-73
2021/03/24 00:48:13;;;;;;;38.70;21.40;;;;;;;0.64;93.44;96777.34;1278774;23;20473;-73
2021/03/24 00:48:44;;;;;;;35.38;22.83;;;;;;;0.64;93.77;96778.19;1278393;23;19993;-73
2021/03/24 00:49:14;;;;;;;35.33;22.10;;;;;;;0.64;93.39;96774.72;1278367;23;20001;-73
2021/03/24 00:49:44;;;;;;;33.13;22.40;;;;;;;0.64;93.83;96780.81;1278378;23;20004;-73
2021/03/24 00:50:20;;;;;;;38.30;22.10;;;;;;;0.63;93.55;96778.38;1278435;23;20005;-73
2021/03/24 00:50:50;;;;;;;34.78;22.50;;;;;;;0.64;93.76;96772.09;1278657;23;20000;-73
2021/03/24 00:51:21;;;;;;;35.73;21.83;;;;;;;0.65;93.72;96778.97;1278584;23;20005;-73
2021/03/24 00:51:51;;;;;;;36.47;23.33;;;;;;;0.64;93.32;96774.72;1278912;23;20005;-73
2021/03/24 00:52:22;;;;;;;39.00;22.77;;;;;;;0.62;93.57;96771.50;1278846;23;20009;-73
2021/03/24 00:52:52;;;;;;;36.17;22.83;;;;;;;0.62;93.59;96768.84;1278853;23;20331;-73
2021/03/24 00:53:23;;;;;;;35.63;22.37;;;;;;;0.63;93.87;96770.47;1278829;23;20001;-73
2021/03/24 00:53:53;;;;;;;36.80;22.63;;;;;;;0.61;93.70;96770.66;1278792;23;20415;-72
2021/03/24 00:54:23;;;;;;;35.33;23.63;;;;;;;0.62;93.35;96769.66;1278821;23;20052;-72
2021/03/24 00:54:54;;;;;;;36.10;23.30;;;;;;;0.59;93.73;96756.88;1278892;23;20373;-71
2021/03/24 00:55:24;;;;;;;37.73;22.77;;;;;;;0.61;93.49;96767.19;1278775;23;20457;-72
2021/03/24 00:55:55;;;;;;;36.03;22.30;;;;;;;0.58;93.98;96764.97;1272084;23;20012;-73
2021/03/24 00:56:25;;;;;;;36.33;22.67;;;;;;;0.57;94.04;96765.97;1272296;23;20048;-73
2021/03/24 00:56:55;;;;;;;37.73;23.10;;;;;;;0.56;94.43;96761.69;1272270;23;20006;-73
2021/03/24 00:57:26;;;;;;;34.03;23.07;;;;;;;0.55;94.03;96770.59;1272237;23;20001;-73
2021/03/24 00:57:56;;;;;;;35.20;23.33;;;;;;;0.56;94.38;96764.31;1278831;23;20009;-72
2021/03/24 00:58:27;;;;;;;38.30;22.80;;;;;;;0.56;94.16;96764.31;1278757;23;19997;-72
2021/03/24 00:58:57;;;;;;;38.10;23.07;;;;;;;0.52;94.39;96766.53;1278746;23;20000;-73
2021/03/24 00:59:28;;;;;;;36.40;24.17;;;;;;;0.52;94.43;96761.28;1278763;23;19997;-73
2021/03/24 00:59:58;;;;;;;35.23;23.53;;;;;;;0.52;93.87;96769.16;1278862;23;20001;-72
2021/03/24 01:00:31;;;;;;;33.77;23.00;;;;;;;0.55;93.77;96765.34;1278790;23;19998;-72
2021/03/24 01:01:02;;;;;;;35.42;22.20;;;;;;;0.50;94.12;96764.06;1278757;23;19997;-73
2021/03/24 01:01:32;;;;;;;35.07;23.33;;;;;;;0.52;94.06;96761.28;1278698;23;20076;-72
2021/03/24 01:02:03;;;;;;;38.63;22.87;;;;;;;0.51;94.41;96768.34;1278681;23;19997;-72
2021/03/24 01:02:33;;;;;;;34.73;22.63;;;;;;;0.49;93.95;96756.38;1278745;23;20005;-72
2021/03/24 01:03:04;;;;;;;37.20;22.33;;;;;;;0.47;94.07;96759.19;1278790;23;20304;-72
2021/03/24 01:03:36;;;;;;;31.17;21.17;;;;;;;0.46;94.27;96756.75;1278768;23;20430;-73
2021/03/24 01:04:07;;;;;;;36.85;22.75;;;;;;;0.44;94.58;96764.81;1278736;23;20004;-72
2021/03/24 01:04:37;;;;;;;36.20;22.83;;;;;;;0.45;94.56;96766.44;1278426;23;20009;-73
2021/03/24 01:05:08;;;;;;;34.50;22.37;;;;;;;0.43;94.75;96760.56;1278447;23;20489;-72
2021/03/24 01:05:39;;;;;;;35.33;23.13;;;;;;;0.46;94.56;96757.59;1278214;23;20100;-72
2021/03/24 01:06:10;;;;;;;34.97;22.30;;;;;;;0.41;94.39;96757.31;1278280;23;20007;-72
2021/03/24 01:06:40;;;;;;;36.13;23.07;;;;;;;0.40;94.51;96760.94;1272283;23;20005;-73
2021/03/24 01:07:11;;;;;;;38.90;23.17;;;;;;;0.43;94.64;96754.50;1272407;23;19997;-72
2021/03/24 01:07:43;;;;;;;39.35;24.02;;;;;;;0.43;95.04;96749.25;1278440;23;20423;-72
2021/03/24 01:08:17;;;;;;;40.95;23.45;;;;;;;0.39;94.59;96753.25;1278453;23;20434;-72
2021/03/24 01:08:48;;;;;;;39.13;23.70;;;;;;;0.38;95.28;96752.44;1278776;23;20001;-72
2021/03/24 01:09:18;;;;;;;34.77;23.37;;;;;;;0.42;95.09;96756.31;1278787;23;20001;-72
2021/03/24 01:09:48;;;;;;;41.97;24.57;;;;;;;0.41;94.76;96749.44;1278711;23;20079;-72
2021/03/24 01:10:23;;;;;;;38.83;23.63;;;;;;;0.39;95.14;96747.97;1278816;23;19997;-72
2021/03/24 01:10:54;;;;;;;36.90;22.92;;;;;;;0.40;94.67;96747.78;1278726;23;20015;-72
2021/03/24 01:11:25;;;;;;;38.63;23.90;;;;;;;0.40;94.77;96754.88;1278790;23;20059;-74
2021/03/24 01:11:55;;;;;;;41.80;24.73;;;;;;;0.37;94.47;96752.63;1278738;23;20091;-72
2021/03/24 01:12:26;;;;;;;36.43;22.93;;;;;;;0.34;94.86;96750.34;1278725;23;20423;-73
2021/03/24 01:12:56;;;;;;;39.30;23.70;;;;;;;0.31;95.08;96743.66;1278707;23;19997;-73
2021/03/24 01:13:27;;;;;;;38.33;23.20;;;;;;;0.24;95.16;96748.03;1278865;23;19996;-73
2021/03/24 01:13:57;;;;;;;40.27;23.97;;;;;;;0.23;95.63;96746.41;1278737;23;20009;-72
2021/03/24 01:14:28;;;;;;;42.43;23.90;;;;;;;0.24;95.56;96748.03;1278736;23;20459;-72
2021/03/24 01:14:58;;;;;;;35.67;22.87;;;;;;;0.23;96.04;96741.97;1278728;23;20681;-72
2021/03/24 01:15:29;;;;;;;35.73;22.40;;;;;;;0.24;95.55;96740.94;1278789;23;20000;-73
2021/03/24 01:15:59;;;;;;;36.87;21.87;;;;;;;0.23;95.48;96746.41;1278478;23;20386;-73
2021/03/24 01:16:30;;;;;;;36.93;22.73;;;;;;;0.28;96.18;96744.03;1278762;23;20481;-72
2021/03/24 01:17:00;;;;;;;36.53;23.17;;;;;;;0.27;96.05;96745.03;1278719;23;20012;-72
2021/03/24 01:17:30;;;;;;;39.10;23.33;;;;;;;0.27;96.33;96747.66;1278725;23;20071;-73
2021/03/24 01:18:01;;;;;;;37.73;22.83;;;;;;;0.29;95.88;96743.03;1278685;23;20001;-73
2021/03/24 01:18:32;;;;;;;38.87;24.20;;;;;;;0.32;95.79;96744.47;1278758;23;20032;-72
2021/03/24 01:19:02;;;;;;;40.40;23.30;;;;;;;0.33;96.02;96743.47;1278264;23;20009;-72
2021/03/24 01:19:33;;;;;;;37.80;23.90;;;;;;;0.35;95.65;96755.41;1278352;23;20001;-73
2021/03/24 01:20:04;;;;;;;33.30;23.10;;;;;;;0.36;95.75;96748.34;1278359;23;20012;-72
2021/03/24 01:20:36;;;;;;;37.92;23.63;;;;;;;0.37;94.99;96750.81;1278382;23;20004;-72
2021/03/24 01:21:06;;;;;;;37.10;23.67;;;;;;;0.37;94.67;96748.19;1278679;23;20015;-72
2021/03/24 01:21:37;;;;;;;44.33;24.47;;;;;;;0.34;95.40;96747.72;1278696;23;20001;-72
2021/03/24 01:22:07;;;;;;;37.57;23.37;;;;;;;0.27;95.45;96746.84;1278680;23;20005;-72
2021/03/24 01:22:38;;;;;;;41.37;23.77;;;;;;;0.23;95.30;96754.28;1278205;23;20331;-72
2021/03/24 01:23:08;;;;;;;41.87;23.23;;;;;;;0.22;95.23;96748.22;1278425;23;20008;-72
2021/03/24 01:23:39;;;;;;;36.03;23.33;;;;;;;0.23;95.38;96744.59;1277585;23;20177;-72
2021/03/24 01:24:09;;;;;;;39.17;24.33;;;;;;;0.23;95.52;96749.84;1278284;23;20462;-72
2021/03/24 01:24:39;;;;;;;36.27;23.23;;;;;;;0.23;95.55;96755.09;1278742;23;20001;-72
2021/03/24 01:25:10;;;;;;;36.00;22.13;;;;;;;0.21;95.86;96749.22;1278827;23;20374;-72
2021/03/24 01:25:40;;;;;;;42.07;24.30;;;;;;;0.22;95.48;96750.03;1278750;23;20418;-72
2021/03/24 01:26:11;;;;;;;35.37;23.17;;;;;;;0.20;96.03;96744.94;1278549;23;20005;-71
2021/03/24 01:26:41;;;;;;;42.37;25.53;;;;;;;0.21;95.45;96749.22;1278693;23;20048;-72
2021/03/24 01:27:12;;;;;;;36.10;23.07;;;;;;;0.21;96.20;96749.22;1278775;23;20008;-72
2021/03/24 01:27:42;;;;;;;35.80;23.57;;;;;;;0.21;96.06;96746.59;1278217;23;19994;-72
2021/03/24 01:28:21;;;;;;;39.50;23.40;;;;;;;0.20;95.86;96747.56;1278249;23;20005;-71
2021/03/24 01:28:58;;;;;;;36.50;22.23;;;;;;;0.20;95.92;96744.94;1278356;23;19993;-72
2021/03/24 01:29:28;;;;;;;39.50;23.58;;;;;;;0.20;96.31;96750.22;1278679;23;20460;-72
2021/03/24 01:29:58;;;;;;;39.50;24.33;;;;;;;0.22;95.67;96750.84;1278818;23;20008;-73
2021/03/24 01:30:29;;;;;;;40.27;24.30;;;;;;;0.22;95.87;96755.31;1278713;23;19993;-72
2021/03/24 01:31:00;;;;;;;38.78;23.17;;;;;;;0.24;95.82;96748.03;1278790;23;20005;-72
2021/03/24 01:31:30;;;;;;;37.23;22.90;;;;;;;0.20;95.91;96752.03;1278704;23;20075;-72
2021/03/24 01:32:01;;;;;;;38.03;23.67;;;;;;;0.24;96.17;96750.66;1278414;23;19997;-72
2021/03/24 01:32:31;;;;;;;33.67;21.77;;;;;;;0.23;95.91;96756.94;1278261;23;20252;-72
2021/03/24 01:33:02;;;;;;;38.80;23.07;;;;;;;0.23;96.18;96749.03;1278466;23;20001;-72
2021/03/24 01:33:32;;;;;;;39.40;23.17;;;;;;;0.25;95.86;96753.09;1278347;23;20427;-72
2021/03/24 01:34:03;;;;;;;35.07;21.87;;;;;;;0.26;96.21;96746.03;1278751;23;20004;-72
2021/03/24 01:34:33;;;;;;;38.93;24.10;;;;;;;0.21;95.73;96754.50;1278683;23;20000;-72
2021/03/24 01:35:07;;;;;;;42.13;23.67;;;;;;;0.15;96.39;96760.47;1278829;23;19997;-72
2021/03/24 01:35:39;;;;;;;36.35;22.45;;;;;;;0.21;96.57;96751.06;1278278;23;20039;-73
2021/03/24 01:36:09;;;;;;;36.30;22.38;;;;;;;0.23;96.16;96755.09;1278254;23;20343;-72
2021/03/24 01:36:40;;;;;;;34.43;21.57;;;;;;;0.24;96.02;96750.66;1278370;23;20075;-72
2021/03/24 01:37:10;;;;;;;35.53;22.13;;;;;;;0.25;95.78;96752.28;1278324;23;20008;-72
2021/03/24 01:37:42;;;;;;;37.27;22.07;;;;;;;0.27;95.30;96746.84;1278691;23;19997;-72
2021/03/24 01:38:13;;;;;;;34.75;21.23;;;;;;;0.27;95.47;96752.13;1278666;23;20001;-73
2021/03/24 01:38:43;;;;;;;34.87;21.63;;;;;;;0.26;95.70;96753.94;1278280;23;19989;-72
2021/03/24 01:39:14;;;;;;;37.63;22.67;;;;;;;0.26;95.66;96743.41;1278387;23;20008;-72
2021/03/24 01:39:44;;;;;;;37.87;22.73;;;;;;;0.24;95.21;96755.91;1278292;23;19997;-72
2021/03/24 01:40:24;;;;;;;36.53;23.07;;;;;;;0.25;95.98;96749.66;1278246;23;19997;-73
2021/03/24 01:40:59;;;;;;;39.90;22.80;;;;;;;0.25;95.80;96749.66;1278734;23;19997;-72
2021/03/24 01:41:29;;;;;;;39.63;23.48;;;;;;;0.25;95.68;96749.66;1278707;23;20035;-72
2021/03/24 01:42:00;;;;;;;39.83;23.60;;;;;;;0.22;96.10;96750.84;1278223;23;20000;-73
2021/03/24 01:42:30;;;;;;;38.80;23.80;;;;;;;0.18;96.22;96754.03;1278317;23;19997;-72
2021/03/24 01:43:03;;;;;;;32.83;21.70;;;;;;;0.21;95.98;96749.22;1278378;23;20077;-72
2021/03/24 01:43:35;;;;;;;37.85;22.30;;;;;;;0.22;96.10;96750.03;1278366;23;20389;-72
2021/03/24 01:44:05;;;;;;;35.20;21.90;;;;;;;0.22;96.40;96752.69;1280085;23;20001;-73
2021/03/24 01:45:02;;;;;;;41.67;23.27;;;;;;;0.17;95.66;96752.41;1280376;23;19993;-73
2021/03/24 01:45:33;;;;;;;36.33;21.65;;;;;;;0.19;95.72;96761.72;1272093;23;20009;-72
2021/03/24 01:46:18;;;;;;;38.50;22.40;;;;;;;0.20;95.50;96754.66;1277456;23;20008;-73
2021/03/24 01:46:49;;;;;;;37.25;21.83;;;;;;;0.19;95.79;96755.66;1278312;23;20009;-72
2021/03/24 01:47:19;;;;;;;38.70;22.70;;;;;;;0.17;95.80;96755.84;1278496;23;20455;-73
2021/03/24 01:47:49;;;;;;;38.83;21.83;;;;;;;0.18;96.42;96751.41;1278606;23;20422;-73
2021/03/24 01:48:20;;;;;;;35.50;21.93;;;;;;;0.20;95.43;96752.03;1278637;23;20017;-73
2021/03/24 01:48:57;;;;;;;35.97;22.00;;;;;;;0.17;95.94;96755.84;1278276;23;19997;-73
2021/03/24 01:49:31;;;;;;;40.45;22.33;;;;;;;0.16;96.27;96748.97;1272246;23;20001;-72
2021/03/24 01:50:02;;;;;;;37.42;22.25;;;;;;;0.18;96.18;96751.41;1272195;23;19997;-73
2021/03/24 01:50:41;;;;;;;34.88;22.10;;;;;;;0.18;96.12;96751.41;1272116;23;20061;-74
2021/03/24 01:51:12;;;;;;;38.72;22.45;;;;;;;0.20;95.49;96752.03;1271913;23;20076;-73
2021/03/24 01:51:48;;;;;;;36.20;22.75;;;;;;;0.20;96.01;96746.78;1269499;23;20081;-72
2021/03/24 01:52:18;;;;;;;36.72;22.25;;;;;;;0.17;95.85;96752.41;1266310;23;20014;-73
2021/03/24 01:52:49;;;;;;;37.20;22.63;;;;;;;0.16;95.73;96756.88;1273545;23;20013;-72
2021/03/24 01:53:19;;;;;;;39.50;22.93;;;;;;;0.17;95.89;96744.53;1272145;23;20435;-72
2021/03/24 01:53:50;;;;;;;34.37;22.27;;;;;;;0.17;95.49;96755.03;1273054;23;20309;-72
2021/03/24 01:54:23;;;;;;;36.80;23.00;;;;;;;0.14;96.28;96752.78;1271983;23;20427;-73
2021/03/24 01:54:53;;;;;;;39.75;23.52;;;;;;;0.13;95.81;96749.34;1266668;23;20470;-73
2021/03/24 01:55:24;;;;;;;33.37;22.00;;;;;;;0.10;95.88;96752.31;1272142;23;20009;-72
2021/03/24 01:55:55;;;;;;;35.63;23.73;;;;;;;0.12;96.11;96754.78;1273111;23;20419;-73
2021/03/24 01:56:26;;;;;;;38.40;23.43;;;;;;;0.10;96.12;96747.06;1278541;23;19997;-73
2021/03/24 01:56:59;;;;;;;38.70;24.10;;;;;;;0.13;95.87;96751.97;1278362;23;20206;-72
2021/03/24 01:57:30;;;;;;;38.03;23.25;;;;;;;0.16;95.78;96745.53;1265878;23;20214;-72
2021/03/24 01:58:00;;;;;;;38.93;22.50;;;;;;;0.13;96.40;96748.53;1266044;23;20002;-72
2021/03/24 01:58:31;;;;;;;36.47;23.00;;;;;;;0.12;95.78;96745.09;1260700;23;20092;-72
2021/03/24 01:59:01;;;;;;;37.53;22.50;;;;;;;0.15;95.89;96744.69;1260498;23;19999;-72
2021/03/24 01:59:31;;;;;;;40.00;22.83;;;;;;;0.15;96.05;96749.94;1272194;23;20134;-72
2021/03/24 02:00:06;;;;;;;35.03;22.20;;;;;;;0.16;95.56;96756.06;1272345;23;20374;-73
2021/03/24 02:00:45;;;;;;;36.25;23.08;;;;;;;0.17;95.79;96749.78;1278221;23;20001;-72
2021/03/24 02:01:16;;;;;;;36.40;22.80;;;;;;;0.11;95.73;96747.91;1278224;23;20390;-73
2021/03/24 02:01:47;;;;;;;37.63;22.90;;;;;;;0.12;95.87;96750.34;1278220;23;19997;-72
2021/03/24 02:02:25;;;;;;;41.43;22.90;;;;;;;0.14;96.29;96748.31;1278232;23;20005;-72
2021/03/24 02:02:55;;;;;;;39.20;22.95;;;;;;;0.12;96.29;96749.53;1278210;23;20080;-73
2021/03/24 02:03:26;;;;;;;39.13;23.23;;;;;;;0.10;96.66;96748.88;1278637;23;20430;-73
2021/03/24 02:03:57;;;;;;;34.35;21.30;;;;;;;0.10;95.78;96749.69;1278295;23;20489;-73
2021/03/24 02:04:27;;;;;;;35.80;21.90;;;;;;;0.13;95.71;96756.41;1278232;23;19989;-73
2021/03/24 02:04:58;;;;;;;35.80;21.63;;;;;;;0.13;95.77;96753.78;1278387;23;20051;-73
2021/03/24 02:05:28;;;;;;;39.10;23.73;;;;;;;0.15;96.32;96751.78;1278513;23;20064;-73
2021/03/24 02:05:59;;;;;;;35.77;21.10;;;;;;;0.13;95.59;96749.34;1284434;23;20095;-72
2021/03/24 02:06:42;;;;;;;35.50;21.77;;;;;;;0.14;95.67;96747.53;1278032;23;20008;-73
2021/03/24 02:07:32;;;;;;;33.83;21.05;;;;;;;0.17;95.75;96749.78;1265996;23;20037;-72
2021/03/24 02:08:08;;;;;;;34.03;20.77;;;;;;;0.13;96.17;96754.59;1260762;23;20468;-73
2021/03/24 02:08:41;;;;;;;38.30;23.35;;;;;;;0.13;96.35;96748.53;1266057;23;20010;-72
2021/03/24 02:09:26;;;;;;;30.63;20.13;;;;;;;0.16;95.77;96754.22;1272209;23;20455;-72
2021/03/24 02:10:03;;;;;;;34.45;21.35;;;;;;;0.15;96.36;96746.50;1272146;23;20068;-72
2021/03/24 02:10:37;;;;;;;43.15;22.80;;;;;;;0.08;96.41;96749.06;1272081;23;19997;-72
2021/03/24 02:11:15;;;;;;;37.13;21.70;;;;;;;0.11;96.13;96745.28;1265967;23;20010;-72
2021/03/24 02:11:55;;;;;;;39.75;24.25;;;;;;;0.12;96.56;96739.81;1271842;23;20379;-72
2021/03/24 02:12:28;;;;;;;35.67;22.83;;;;;;;0.11;95.95;96745.28;1276414;23;19989;-72
2021/03/24 02:13:05;;;;;;;35.15;21.88;;;;;;;0.12;96.10;96749.53;1263899;23;20006;-72
2021/03/24 02:13:47;;;;;;;35.72;21.80;;;;;;;0.12;96.42;96746.91;1254026;23;19994;-72
2021/03/24 02:14:30;;;;;;;36.75;22.67;;;;;;;0.10;96.13;96752.31;1259902;23;20010;-72
2021/03/24 02:15:16;;;;;;;40.13;22.38;;;;;;;0.12;95.90;96750.34;1259990;23;20009;-72
2021/03/24 02:15:49;;;;;;;36.47;22.45;;;;;;;0.12;95.99;96744.28;1260087;23;20002;-72
2021/03/24 02:16:29;;;;;;;37.67;21.98;;;;;;;0.10;96.21;96743.63;1259780;23;20006;-72
2021/03/24 02:16:59;;;;;;;35.67;21.48;;;;;;;0.08;96.27;96749.06;1259568;23;20102;-72
2021/03/24 02:17:29;;;;;;;34.90;22.00;;;;;;;0.09;96.01;96748.06;1259794;23;19999;-72
2021/03/24 02:18:00;;;;;;;35.50;21.67;;;;;;;0.07;95.82;96757.97;1261897;23;20110;-73
2021/03/24 02:18:32;;;;;;;39.33;23.50;;;;;;;0.06;95.80;96745.84;1266042;23;20372;-72
2021/03/24 02:19:08;;;;;;;35.17;20.83;;;;;;;0.06;96.17;96751.09;1272089;23;20044;-72
2021/03/24 02:20:00;;;;;;;32.83;20.48;;;;;;;0.08;96.37;96745.63;1278340;23;20327;-73
2021/03/24 02:20:37;;;;;;;34.08;21.20;;;;;;;0.06;96.36;96753.72;1272012;23;20521;-72
2021/03/24 02:21:09;;;;;;;32.40;20.75;;;;;;;0.05;96.33;96754.69;1260476;23;20440;-73
2021/03/24 02:21:39;;;;;;;36.28;21.55;;;;;;;0.01;96.08;96750.03;1266074;23;20021;-73
2021/03/24 02:22:10;;;;;;;36.40;21.30;;;;;;;0.05;95.79;96753.88;1259221;23;20459;-73
2021/03/24 02:22:46;;;;;;;38.57;22.63;;;;;;;0.04;96.39;96750.44;1248572;23;19999;-72
2021/03/24 02:23:36;;;;;;;37.35;20.65;;;;;;;0.04;95.74;96747.81;1259834;23;19999;-72
2021/03/24 02:24:16;;;;;;;31.30;21.58;;;;;;;0.02;96.55;96756.91;1272202;23;20012;-73
2021/03/24 02:25:03;;;;;;;39.22;21.17;;;;;;;0.06;95.95;96752.91;1266045;23;20827;-73
2021/03/24 02:25:55;;;;;;;35.83;20.80;;;;;;;0.04;96.34;96749.63;1260423;23;20077;-72
2021/03/24 02:26:41;;;;;;;38.30;21.13;;;;;;;-0.01;96.38;96748.38;1268631;23;20072;-72
2021/03/24 02:27:13;;;;;;;34.80;20.55;;;;;;;0.00;95.86;96751.84;1261299;23;20361;-72
2021/03/24 02:27:45;;;;;;;37.92;22.10;;;;;;;-0.02;95.82;96752.00;1266038;23;20491;-72
2021/03/24 02:28:15;;;;;;;35.95;21.95;;;;;;;-0.03;96.72;96744.31;1269722;23;20069;-72
2021/03/24 02:28:46;;;;;;;35.03;21.60;;;;;;;-0.01;96.21;96755.44;1268214;23;20006;-72
2021/03/24 02:29:19;;;;;;;33.83;21.63;;;;;;;0.01;96.42;96752.66;1259884;23;20002;-73